Time;durP1;ratioP1;P1;durP2;ratioP2;P2;SDS_P1;SDS_P2;PMS_P1;PMS_P2;Temp;Humidity;BMP_temperature;BMP_pressure;BME280_temperature;BME280_humidity;BME280_pressure;Samples;Min_cycle;Max_cycle;Signal;HPM_P1;HPM_P2
2021/08/24 00:01:03;;;;;;;6.80;3.37;;;;;;;;;;5030852;28;20410;-46
2021/08/24 00:03:29;;;;;;;5.80;3.17;;;;;;;;;;5030209;28;20922;-46
2021/08/24 00:05:55;;;;;;;4.43;3.50;;;;;;;;;;5030200;28;20505;-47
2021/08/24 00:08:21;;;;;;;10.30;3.63;;;;;;;;;;5030129;28;20451;-48
2021/08/24 00:10:51;;;;;;;16.57;3.60;;;;;;;;;;5030259;28;20853;-45
2021/08/24 00:13:18;;;;;;;6.13;3.83;;;;;;;;;;5030159;28;20540;-45
2021/08/24 00:15:44;;;;;;;6.03;3.37;;;;;;;;;;5033861;28;20426;-47
2021/08/24 00:18:11;;;;;;;6.33;3.10;;;;;;;;;;5033927;28;20384;-46
2021/08/24 00:20:38;;;;;;;3.47;3.17;;;;;;;;;;5033889;28;20881;-48
2021/08/24 00:23:06;;;;;;;4.13;3.30;;;;;;;;;;5033788;28;20392;-45
2021/08/24 00:25:33;;;;;;;4.33;3.63;;;;;;;;;;5033690;28;20457;-46
2021/08/24 00:27:59;;;;;;;4.47;4.07;;;;;;;;;;5033720;28;20460;-46
2021/08/24 00:30:24;;;;;;;5.70;3.90;;;;;;;;;;5033821;28;20398;-46
2021/08/24 00:32:50;;;;;;;4.03;3.57;;;;;;;;;;5033834;28;20955;-46
2021/08/24 00:35:16;;;;;;;6.33;3.63;;;;;;;;;;5033671;28;20756;-47
2021/08/24 00:37:42;;;;;;;6.43;3.10;;;;;;;;;;5033691;28;20435;-47
2021/08/24 00:40:09;;;;;;;3.60;3.30;;;;;;;;;;5033268;28;20478;-49
2021/08/24 00:42:36;;;;;;;4.03;3.57;;;;;;;;;;5033593;28;20409;-46
2021/08/24 00:45:03;;;;;;;3.80;3.43;;;;;;;;;;5033522;28;20508;-49
2021/08/24 00:47:29;;;;;;;8.33;3.43;;;;;;;;;;5033696;28;20889;-45
2021/08/24 00:50:02;;;;;;;3.97;3.07;;;;;;;;;;5033429;28;20450;-46
2021/08/24 00:52:28;;;;;;;4.00;3.70;;;;;;;;;;5033681;28;20401;-45
2021/08/24 00:54:54;;;;;;;4.43;3.47;;;;;;;;;;5033323;28;20451;-46
2021/08/24 00:57:22;;;;;;;3.63;3.33;;;;;;;;;;5033854;28;20416;-45
2021/08/24 00:59:52;;;;;;;4.77;3.70;;;;;;;;;;5033155;28;20420;-45
2021/08/24 01:02:19;;;;;;;4.47;3.93;;;;;;;;;;5032840;28;20387;-46
2021/08/24 01:04:46;;;;;;;6.13;3.77;;;;;;;;;;5032460;28;20629;-45
2021/08/24 01:07:18;;;;;;;4.10;3.70;;;;;;;;;;5032828;28;20432;-46
2021/08/24 01:09:44;;;;;;;4.70;3.80;;;;;;;;;;5033128;28;20402;-46
2021/08/24 01:12:13;;;;;;;3.37;3.13;;;;;;;;;;5033147;28;20412;-45
2021/08/24 01:14:39;;;;;;;5.97;3.77;;;;;;;;;;5032755;28;20419;-49
2021/08/24 01:17:12;;;;;;;3.43;3.23;;;;;;;;;;5032961;28;20850;-47
2021/08/24 01:19:57;;;;;;;5.37;3.60;;;;;;;;;;5032619;28;20414;-46
2021/08/24 01:22:41;;;;;;;7.07;3.83;;;;;;;;;;5032876;28;20405;-46
2021/08/24 01:25:11;;;;;;;5.20;3.70;;;;;;;;;;5032172;28;20425;-45
2021/08/24 01:27:39;;;;;;;3.80;3.50;;;;;;;;;;5032696;28;20409;-46
2021/08/24 01:30:04;;;;;;;7.50;3.93;;;;;;;;;;5032387;28;20778;-46
2021/08/24 01:32:49;;;;;;;7.63;4.10;;;;;;;;;;5032554;28;20408;-46
2021/08/24 01:35:23;;;;;;;7.33;4.77;;;;;;;;;;5032454;28;20421;-45
2021/08/24 01:38:07;;;;;;;4.70;3.70;;;;;;;;;;5032713;28;20427;-46
2021/08/24 01:40:56;;;;;;;5.17;4.67;;;;;;;;;;5032132;28;20399;-48
2021/08/24 01:43:31;;;;;;;5.03;4.20;;;;;;;;;;5029384;28;20473;-46
2021/08/24 01:46:05;;;;;;;5.13;4.03;;;;;;;;;;5032297;28;20453;-45
2021/08/24 01:48:33;;;;;;;8.43;4.23;;;;;;;;;;5032213;28;20383;-48
2021/08/24 01:51:00;;;;;;;7.60;4.20;;;;;;;;;;5032093;28;20790;-48
2021/08/24 01:53:38;;;;;;;5.93;4.50;;;;;;;;;;5032201;28;20966;-46
2021/08/24 01:56:08;;;;;;;7.00;4.87;;;;;;;;;;5032036;28;20448;-45
2021/08/24 01:58:39;;;;;;;4.93;4.43;;;;;;;;;;5031989;28;20488;-45
2021/08/24 02:01:07;;;;;;;7.40;4.30;;;;;;;;;;5032020;28;20406;-46
2021/08/24 02:03:37;;;;;;;5.27;4.13;;;;;;;;;;5032054;28;20408;-45
2021/08/24 02:06:09;;;;;;;4.30;4.00;;;;;;;;;;5031765;28;20497;-46
2021/08/24 02:08:36;;;;;;;5.50;4.03;;;;;;;;;;5031856;28;20852;-45
2021/08/24 02:11:05;;;;;;;5.40;4.30;;;;;;;;;;5031798;28;20462;-48
2021/08/24 02:13:39;;;;;;;5.80;4.40;;;;;;;;;;5031968;28;20791;-46
2021/08/24 02:16:07;;;;;;;4.17;3.77;;;;;;;;;;5031521;28;20918;-49
2021/08/24 02:18:37;;;;;;;6.73;3.87;;;;;;;;;;5031650;28;20391;-46
2021/08/24 02:21:11;;;;;;;4.83;4.13;;;;;;;;;;5031735;28;20405;-45
2021/08/24 02:23:38;;;;;;;5.97;3.47;;;;;;;;;;5031731;28;20414;-45
2021/08/24 02:26:05;;;;;;;7.53;4.57;;;;;;;;;;5031403;28;20503;-45
2021/08/24 02:28:33;;;;;;;4.20;3.90;;;;;;;;;;5031376;28;20502;-45
2021/08/24 02:31:05;;;;;;;4.50;4.20;;;;;;;;;;5031345;28;20765;-46
2021/08/24 02:33:35;;;;;;;4.37;3.97;;;;;;;;;;5031523;28;20407;-48
2021/08/24 02:36:02;;;;;;;4.70;4.30;;;;;;;;;;5031019;28;20465;-46
2021/08/24 02:38:29;;;;;;;5.73;4.17;;;;;;;;;;5030738;28;21001;-46
2021/08/24 02:41:07;;;;;;;4.63;4.03;;;;;;;;;;5031129;28;20408;-49
2021/08/24 02:43:52;;;;;;;7.57;3.90;;;;;;;;;;5031403;28;20975;-47
2021/08/24 02:46:17;;;;;;;5.00;4.10;;;;;;;;;;5031142;28;20459;-46
2021/08/24 02:48:46;;;;;;;4.60;4.20;;;;;;;;;;5031092;28;20502;-47
2021/08/24 02:51:15;;;;;;;6.67;5.23;;;;;;;;;;5030953;28;20478;-47
2021/08/24 02:53:43;;;;;;;14.13;4.73;;;;;;;;;;5031157;28;20403;-49
2021/08/24 02:56:09;;;;;;;4.93;4.33;;;;;;;;;;5030892;28;20511;-46
2021/08/24 02:58:35;;;;;;;4.80;4.40;;;;;;;;;;5030994;28;20410;-45
2021/08/24 03:01:01;;;;;;;4.47;4.07;;;;;;;;;;5031196;28;20494;-45
2021/08/24 03:03:26;;;;;;;6.27;4.70;;;;;;;;;;5031163;28;20443;-45
2021/08/24 03:05:52;;;;;;;15.17;4.83;;;;;;;;;;5031134;28;20468;-46
2021/08/24 03:08:19;;;;;;;7.37;4.77;;;;;;;;;;5030900;28;20405;-49
2021/08/24 03:10:47;;;;;;;7.67;4.50;;;;;;;;;;5031432;28;20431;-45
2021/08/24 03:13:26;;;;;;;5.40;4.90;;;;;;;;;;5030985;28;20491;-46
2021/08/24 03:16:13;;;;;;;5.73;4.80;;;;;;;;;;5030929;28;20431;-45
2021/08/24 03:18:41;;;;;;;5.30;4.83;;;;;;;;;;5030530;28;20447;-46
2021/08/24 03:21:10;;;;;;;5.93;4.40;;;;;;;;;;5030717;28;20498;-45
2021/08/24 03:23:38;;;;;;;6.30;4.63;;;;;;;;;;5030812;28;20409;-49
2021/08/24 03:26:04;;;;;;;5.67;4.20;;;;;;;;;;5030617;28;20853;-45
2021/08/24 03:28:30;;;;;;;4.40;4.10;;;;;;;;;;5030509;28;20394;-46
2021/08/24 03:30:56;;;;;;;7.30;4.37;;;;;;;;;;5030643;28;20758;-48
2021/08/24 03:33:22;;;;;;;6.07;4.70;;;;;;;;;;5030486;28;20415;-48
2021/08/24 03:35:48;;;;;;;7.50;4.93;;;;;;;;;;5030642;28;20905;-46
2021/08/24 03:38:14;;;;;;;8.33;4.90;;;;;;;;;;5030446;28;20409;-49
2021/08/24 03:40:40;;;;;;;6.03;4.73;;;;;;;;;;5030519;28;20442;-46
2021/08/24 03:43:07;;;;;;;5.50;5.00;;;;;;;;;;5030517;28;20882;-45
2021/08/24 03:45:33;;;;;;;7.73;5.33;;;;;;;;;;5030425;28;20470;-49
2021/08/24 03:47:59;;;;;;;5.50;4.90;;;;;;;;;;5031085;28;20403;-46
2021/08/24 03:50:25;;;;;;;8.50;5.70;;;;;;;;;;5034327;28;20521;-48
2021/08/24 03:52:51;;;;;;;9.70;5.63;;;;;;;;;;5034396;28;20403;-45
2021/08/24 03:55:18;;;;;;;8.90;5.43;;;;;;;;;;5034316;28;20443;-45
2021/08/24 03:57:44;;;;;;;6.67;5.60;;;;;;;;;;5034352;28;20491;-45
2021/08/24 04:00:10;;;;;;;7.00;5.53;;;;;;;;;;5034162;28;20656;-45
2021/08/24 04:02:36;;;;;;;5.57;5.00;;;;;;;;;;5034142;28;20401;-47
2021/08/24 04:05:03;;;;;;;5.40;4.93;;;;;;;;;;5034237;28;20842;-45
2021/08/24 04:07:29;;;;;;;7.83;6.13;;;;;;;;;;5034252;28;20504;-46
2021/08/24 04:09:55;;;;;;;6.03;5.43;;;;;;;;;;5033828;28;20761;-47
2021/08/24 04:12:22;;;;;;;5.23;4.67;;;;;;;;;;5034199;28;20405;-48
2021/08/24 04:14:48;;;;;;;6.60;5.90;;;;;;;;;;5033882;28;20906;-46
2021/08/24 04:17:14;;;;;;;7.30;5.87;;;;;;;;;;5034024;28;20415;-46
2021/08/24 04:19:40;;;;;;;6.50;5.80;;;;;;;;;;5033891;28;20468;-45
2021/08/24 04:22:07;;;;;;;11.70;6.57;;;;;;;;;;5033996;28;20450;-46
2021/08/24 04:24:33;;;;;;;9.23;6.00;;;;;;;;;;5033791;28;20435;-45
2021/08/24 04:26:59;;;;;;;5.40;4.90;;;;;;;;;;5033979;28;21112;-45
2021/08/24 04:29:25;;;;;;;7.50;5.43;;;;;;;;;;5033475;28;20422;-46
2021/08/24 04:31:51;;;;;;;6.00;5.40;;;;;;;;;;5033886;28;20919;-46
2021/08/24 04:34:17;;;;;;;5.80;5.20;;;;;;;;;;5033637;28;20489;-45
2021/08/24 04:36:43;;;;;;;6.13;5.53;;;;;;;;;;5033889;28;20509;-45
2021/08/24 04:39:09;;;;;;;8.80;5.80;;;;;;;;;;5033500;28;20910;-45
2021/08/24 04:41:35;;;;;;;6.97;6.00;;;;;;;;;;5033664;28;20981;-45
2021/08/24 04:44:01;;;;;;;8.27;5.67;;;;;;;;;;5033474;28;20414;-45
2021/08/24 04:46:27;;;;;;;7.90;6.30;;;;;;;;;;5033798;28;20469;-45
2021/08/24 04:48:53;;;;;;;7.27;6.23;;;;;;;;;;5033253;28;20415;-45
2021/08/24 04:51:19;;;;;;;11.97;6.40;;;;;;;;;;5033366;28;20453;-45
2021/08/24 04:53:45;;;;;;;6.23;5.23;;;;;;;;;;5033324;28;20411;-45
2021/08/24 04:56:11;;;;;;;13.63;6.27;;;;;;;;;;5033444;28;20484;-45
2021/08/24 04:58:37;;;;;;;6.63;5.97;;;;;;;;;;5033362;28;20399;-46
2021/08/24 05:01:03;;;;;;;6.20;5.60;;;;;;;;;;5032748;28;20439;-46
2021/08/24 05:03:29;;;;;;;9.40;6.33;;;;;;;;;;5033340;28;20403;-48
2021/08/24 05:05:55;;;;;;;7.60;5.73;;;;;;;;;;5033170;28;20463;-48
2021/08/24 05:08:22;;;;;;;7.73;6.30;;;;;;;;;;5033367;28;20406;-48
2021/08/24 05:10:48;;;;;;;9.80;6.03;;;;;;;;;;5033401;28;20417;-46
2021/08/24 05:13:14;;;;;;;8.80;6.70;;;;;;;;;;5033499;28;20888;-45
2021/08/24 05:15:40;;;;;;;7.57;6.77;;;;;;;;;;5033074;28;20766;-46
2021/08/24 05:18:06;;;;;;;7.83;6.77;;;;;;;;;;5032959;28;20410;-46
2021/08/24 05:20:32;;;;;;;9.50;6.83;;;;;;;;;;5032963;28;20403;-45
2021/08/24 05:22:58;;;;;;;9.53;6.60;;;;;;;;;;5032876;28;20399;-45
2021/08/24 05:25:25;;;;;;;9.30;6.53;;;;;;;;;;5032576;28;20473;-46
2021/08/24 05:27:51;;;;;;;8.50;6.93;;;;;;;;;;5032685;28;20899;-46
2021/08/24 05:30:21;;;;;;;7.90;6.40;;;;;;;;;;5032297;28;20400;-46
2021/08/24 05:32:48;;;;;;;6.40;5.80;;;;;;;;;;5032920;28;20410;-46
2021/08/24 05:35:14;;;;;;;7.50;6.53;;;;;;;;;;5032656;28;20509;-49
2021/08/24 05:37:40;;;;;;;6.93;6.23;;;;;;;;;;5032615;28;20408;-47
2021/08/24 05:40:09;;;;;;;8.30;7.47;;;;;;;;;;5032681;28;20422;-47
2021/08/24 05:42:35;;;;;;;8.70;6.90;;;;;;;;;;5032573;28;20789;-45
2021/08/24 05:45:02;;;;;;;7.47;6.83;;;;;;;;;;5032304;28;20427;-45
2021/08/24 05:47:28;;;;;;;9.33;7.63;;;;;;;;;;5032325;28;20985;-47
2021/08/24 05:49:54;;;;;;;12.90;8.37;;;;;;;;;;5031979;28;20495;-46
2021/08/24 05:52:20;;;;;;;11.20;7.60;;;;;;;;;;5032288;28;20404;-46
2021/08/24 05:54:47;;;;;;;7.97;6.90;;;;;;;;;;5032014;28;20471;-47
2021/08/24 05:57:16;;;;;;;16.30;7.57;;;;;;;;;;5032196;28;20395;-46
2021/08/24 05:59:42;;;;;;;8.00;7.20;;;;;;;;;;5032220;28;20397;-46
2021/08/24 06:02:08;;;;;;;8.83;7.93;;;;;;;;;;5032700;28;20890;-46
2021/08/24 06:04:34;;;;;;;8.57;7.33;;;;;;;;;;5031988;28;20988;-46
2021/08/24 06:07:00;;;;;;;11.43;8.43;;;;;;;;;;5031866;28;20449;-46
2021/08/24 06:09:26;;;;;;;12.90;7.30;;;;;;;;;;5031699;28;20757;-46
2021/08/24 06:11:52;;;;;;;8.93;7.90;;;;;;;;;;5031763;28;20372;-47
2021/08/24 06:14:19;;;;;;;11.00;9.20;;;;;;;;;;5031437;28;20416;-47
2021/08/24 06:16:45;;;;;;;9.43;8.27;;;;;;;;;;5031361;28;20406;-46
2021/08/24 06:19:11;;;;;;;9.97;8.87;;;;;;;;;;5031074;28;20893;-45
2021/08/24 06:21:39;;;;;;;9.73;8.60;;;;;;;;;;5031018;28;20376;-45
2021/08/24 06:24:06;;;;;;;10.73;8.47;;;;;;;;;;5031091;28;20387;-48
2021/08/24 06:26:32;;;;;;;10.17;8.83;;;;;;;;;;5030893;28;20531;-45
2021/08/24 06:28:59;;;;;;;9.93;8.93;;;;;;;;;;5031681;28;20775;-49
2021/08/24 06:31:26;;;;;;;9.30;8.40;;;;;;;;;;5031394;28;20400;-50
2021/08/24 06:33:53;;;;;;;9.70;8.77;;;;;;;;;;5031680;28;20404;-46
2021/08/24 06:36:20;;;;;;;10.33;8.47;;;;;;;;;;5031307;28;20431;-48
2021/08/24 06:38:46;;;;;;;9.80;8.90;;;;;;;;;;5031064;28;20412;-45
2021/08/24 06:41:13;;;;;;;10.20;9.10;;;;;;;;;;5030893;28;20409;-45
2021/08/24 06:43:39;;;;;;;13.20;9.27;;;;;;;;;;5031381;28;20618;-45
2021/08/24 06:46:05;;;;;;;11.47;8.73;;;;;;;;;;5030905;28;20464;-46
2021/08/24 06:48:31;;;;;;;9.53;8.60;;;;;;;;;;5030706;28;20893;-49
2021/08/24 06:50:57;;;;;;;9.80;8.80;;;;;;;;;;5034598;28;20441;-47
2021/08/24 06:53:25;;;;;;;10.57;8.30;;;;;;;;;;5034999;28;20471;-47
2021/08/24 06:55:51;;;;;;;13.87;8.90;;;;;;;;;;5033922;28;20435;-46
2021/08/24 06:58:19;;;;;;;10.50;8.93;;;;;;;;;;5034196;28;20416;-47
2021/08/24 07:00:45;;;;;;;9.33;8.40;;;;;;;;;;5029238;28;20650;-46
2021/08/24 07:03:12;;;;;;;10.80;9.17;;;;;;;;;;5030303;28;20385;-48
2021/08/24 07:05:40;;;;;;;9.53;8.43;;;;;;;;;;5030686;28;20559;-46
2021/08/24 07:08:07;;;;;;;10.80;9.23;;;;;;;;;;5030691;28;20402;-46
2021/08/24 07:10:33;;;;;;;7.97;7.17;;;;;;;;;;5030881;28;20395;-46
2021/08/24 07:12:59;;;;;;;10.87;8.53;;;;;;;;;;5030913;28;20387;-46
2021/08/24 07:15:25;;;;;;;9.00;8.10;;;;;;;;;;5030821;28;20419;-46
2021/08/24 07:17:53;;;;;;;9.20;8.30;;;;;;;;;;5030761;28;20409;-47
2021/08/24 07:23:23;;;;;;;8.90;7.70;;;;;;;;;;5030644;28;20220;-46
2021/08/24 07:25:49;;;;;;;7.83;7.13;;;;;;;;;;5031244;28;20451;-47
2021/08/24 07:28:15;;;;;;;9.70;8.00;;;;;;;;;;5030919;28;20375;-48
2021/08/24 07:30:44;;;;;;;9.97;7.00;;;;;;;;;;5030386;28;20483;-47
2021/08/24 07:33:10;;;;;;;7.90;7.10;;;;;;;;;;5031501;28;20381;-47
2021/08/24 07:35:36;;;;;;;8.63;6.13;;;;;;;;;;5030577;28;20402;-47
2021/08/24 07:38:02;;;;;;;6.60;6.00;;;;;;;;;;5030668;28;20406;-47
2021/08/24 07:40:28;;;;;;;5.20;4.70;;;;;;;;;;5030268;28;21011;-48
2021/08/24 07:42:54;;;;;;;7.03;5.83;;;;;;;;;;5030684;28;20428;-47
2021/08/24 07:45:21;;;;;;;7.50;5.17;;;;;;;;;;5030632;28;20459;-47
2021/08/24 07:47:47;;;;;;;7.37;5.30;;;;;;;;;;5030603;28;20402;-47
2021/08/24 07:50:13;;;;;;;4.50;4.10;;;;;;;;;;5024147;28;20789;-47
2021/08/24 07:52:39;;;;;;;5.30;4.80;;;;;;;;;;5030315;28;20490;-47
2021/08/24 07:55:06;;;;;;;6.60;4.47;;;;;;;;;;5030360;28;20512;-47
2021/08/24 07:57:32;;;;;;;6.10;4.23;;;;;;;;;;5030316;28;20437;-48
2021/08/24 07:59:58;;;;;;;4.23;3.83;;;;;;;;;;5030451;28;20406;-47
2021/08/24 08:02:24;;;;;;;5.83;3.97;;;;;;;;;;5029904;28;20773;-47
2021/08/24 08:04:50;;;;;;;6.00;3.87;;;;;;;;;;5030312;28;20915;-48
2021/08/24 08:07:16;;;;;;;4.17;3.23;;;;;;;;;;5030057;28;20861;-48
2021/08/24 08:09:43;;;;;;;3.80;3.50;;;;;;;;;;5030416;28;20406;-48
2021/08/24 08:12:09;;;;;;;3.40;3.10;;;;;;;;;;5029983;28;20446;-47
2021/08/24 08:14:36;;;;;;;8.93;3.80;;;;;;;;;;5030199;28;20452;-48
2021/08/24 08:17:02;;;;;;;3.37;3.07;;;;;;;;;;5030187;28;20513;-47
2021/08/24 08:19:28;;;;;;;4.07;2.80;;;;;;;;;;5030125;28;20481;-48
2021/08/24 08:21:54;;;;;;;3.70;2.57;;;;;;;;;;5029722;28;20940;-48
2021/08/24 08:24:20;;;;;;;4.17;2.50;;;;;;;;;;5030017;28;20422;-47
2021/08/24 08:26:46;;;;;;;3.50;2.60;;;;;;;;;;5030124;28;20454;-47
2021/08/24 08:29:13;;;;;;;7.93;2.50;;;;;;;;;;5030056;28;20501;-47
2021/08/24 08:31:41;;;;;;;2.73;2.50;;;;;;;;;;5029869;28;20589;-47
2021/08/24 08:34:07;;;;;;;4.30;2.97;;;;;;;;;;5029926;28;20426;-48
2021/08/24 08:36:33;;;;;;;2.70;2.10;;;;;;;;;;5033028;28;20406;-49
2021/08/24 08:38:59;;;;;;;1.90;1.80;;;;;;;;;;5033768;28;20566;-49
2021/08/24 08:41:31;;;;;;;2.53;2.30;;;;;;;;;;5033436;28;20508;-47
2021/08/24 08:44:00;;;;;;;2.60;2.40;;;;;;;;;;5033608;28;20438;-47
2021/08/24 08:46:32;;;;;;;5.67;2.30;;;;;;;;;;5033383;28;20485;-48
2021/08/24 08:49:17;;;;;;;10.37;7.33;;;;;;;;;;5033411;28;20401;-48
2021/08/24 08:52:06;;;;;;;2.60;2.40;;;;;;;;;;5033400;28;20441;-47
2021/08/24 08:54:38;;;;;;;2.93;2.67;;;;;;;;;;5004834;28;21027;-48
2021/08/24 08:57:09;;;;;;;5.10;3.50;;;;;;;;;;5033750;28;20803;-47
2021/08/24 08:59:41;;;;;;;5.40;2.60;;;;;;;;;;5032013;28;20406;-47
2021/08/24 09:02:19;;;;;;;3.33;2.70;;;;;;;;;;5032887;28;20469;-48
2021/08/24 09:04:47;;;;;;;2.77;2.37;;;;;;;;;;5033463;28;20398;-48
2021/08/24 09:07:36;;;;;;;3.93;2.30;;;;;;;;;;5033495;28;20523;-47
2021/08/24 09:10:02;;;;;;;2.90;2.63;;;;;;;;;;5033262;28;20441;-47
2021/08/24 09:12:29;;;;;;;5.17;2.67;;;;;;;;;;5032808;28;20517;-47
2021/08/24 09:14:57;;;;;;;3.23;2.30;;;;;;;;;;5033404;28;20399;-47
2021/08/24 09:17:28;;;;;;;2.43;2.00;;;;;;;;;;5033367;28;20421;-47
2021/08/24 09:20:04;;;;;;;3.83;3.33;;;;;;;;;;5031902;28;20758;-47
2021/08/24 09:22:30;;;;;;;2.77;2.57;;;;;;;;;;5031580;28;20402;-47
2021/08/24 09:24:56;;;;;;;3.33;2.47;;;;;;;;;;5031549;28;20593;-47
2021/08/24 09:27:40;;;;;;;2.57;2.37;;;;;;;;;;5032905;28;20618;-47
2021/08/24 09:30:07;;;;;;;3.53;2.40;;;;;;;;;;5032757;28;20405;-48
2021/08/24 09:32:33;;;;;;;3.10;2.50;;;;;;;;;;5032572;28;20743;-46
2021/08/24 09:35:22;;;;;;;4.60;2.60;;;;;;;;;;5032930;28;20425;-47
2021/08/24 09:37:48;;;;;;;5.93;2.37;;;;;;;;;;5024661;28;20429;-47
2021/08/24 09:40:14;;;;;;;3.80;2.23;;;;;;;;;;5032450;28;20769;-47
2021/08/24 09:42:42;;;;;;;2.47;2.27;;;;;;;;;;5032309;28;20406;-47
2021/08/24 09:45:23;;;;;;;3.60;2.80;;;;;;;;;;5032464;28;20484;-47
2021/08/24 09:47:52;;;;;;;3.27;2.77;;;;;;;;;;5032242;28;20484;-47
2021/08/24 09:50:31;;;;;;;2.87;2.50;;;;;;;;;;5032022;28;20901;-48
2021/08/24 09:52:57;;;;;;;4.00;2.40;;;;;;;;;;5032226;28;20472;-48
2021/08/24 09:55:27;;;;;;;3.80;2.50;;;;;;;;;;5032111;28;20437;-47
2021/08/24 09:58:01;;;;;;;2.90;2.70;;;;;;;;;;5032391;28;20407;-47
2021/08/24 10:00:55;;;;;;;5.37;2.50;;;;;;;;;;5031906;28;21054;-47
2021/08/24 10:03:26;;;;;;;2.33;2.13;;;;;;;;;;5032138;28;20410;-47
2021/08/24 10:06:01;;;;;;;4.77;3.20;;;;;;;;;;5031943;28;20449;-48
2021/08/24 10:08:32;;;;;;;6.93;3.00;;;;;;;;;;5031970;28;20844;-48
2021/08/24 10:11:03;;;;;;;3.53;3.23;;;;;;;;;;5031685;28;20407;-47
2021/08/24 10:13:37;;;;;;;3.83;2.27;;;;;;;;;;5031913;28;20477;-48
2021/08/24 10:16:19;;;;;;;3.80;2.60;;;;;;;;;;5031750;28;20410;-49
2021/08/24 10:18:45;;;;;;;6.87;2.80;;;;;;;;;;5032003;28;20418;-47
2021/08/24 10:21:28;;;;;;;3.47;2.70;;;;;;;;;;5031393;28;20426;-47
2021/08/24 10:23:57;;;;;;;3.53;2.80;;;;;;;;;;5031529;28;20856;-47
2021/08/24 10:26:27;;;;;;;3.00;2.47;;;;;;;;;;5031454;28;20540;-48
2021/08/24 10:28:55;;;;;;;4.50;2.77;;;;;;;;;;5031514;28;20398;-47
2021/08/24 10:31:37;;;;;;;6.13;2.83;;;;;;;;;;5031541;28;20449;-47
2021/08/24 10:34:09;;;;;;;3.97;3.03;;;;;;;;;;5031565;28;20394;-47
2021/08/24 10:36:45;;;;;;;5.30;2.83;;;;;;;;;;5031550;28;20398;-47
2021/08/24 10:39:17;;;;;;;4.57;3.13;;;;;;;;;;5031318;28;20410;-48
2021/08/24 10:41:44;;;;;;;3.20;2.53;;;;;;;;;;5031092;28;20769;-49
2021/08/24 10:44:18;;;;;;;5.00;2.90;;;;;;;;;;5031298;28;20405;-47
2021/08/24 10:46:49;;;;;;;5.70;5.20;;;;;;;;;;5031347;28;20453;-47
2021/08/24 10:49:15;;;;;;;3.37;2.90;;;;;;;;;;5031236;28;20497;-48
2021/08/24 10:51:47;;;;;;;3.50;3.03;;;;;;;;;;5030834;28;20509;-47
2021/08/24 10:54:30;;;;;;;2.63;2.33;;;;;;;;;;5031521;28;20412;-47
2021/08/24 10:57:22;;;;;;;3.27;2.97;;;;;;;;;;5031700;28;20535;-48
2021/08/24 11:00:06;;;;;;;6.30;2.60;;;;;;;;;;5008136;28;20422;-47
2021/08/24 11:02:32;;;;;;;3.80;3.00;;;;;;;;;;5031142;28;20398;-49
2021/08/24 11:05:16;;;;;;;4.27;2.67;;;;;;;;;;5031188;28;20481;-50
2021/08/24 11:07:42;;;;;;;3.90;2.63;;;;;;;;;;5031103;28;20195;-48
2021/08/24 11:10:24;;;;;;;3.30;2.70;;;;;;;;;;5030914;28;20413;-48
2021/08/24 11:13:16;;;;;;;2.90;2.60;;;;;;;;;;5031113;28;20163;-47
2021/08/24 11:15:44;;;;;;;2.90;2.60;;;;;;;;;;5030976;28;20429;-47
2021/08/24 11:18:29;;;;;;;6.20;2.63;;;;;;;;;;5030907;28;20440;-47
2021/08/24 11:21:04;;;;;;;3.30;2.97;;;;;;;;;;5023829;28;20853;-47
2021/08/24 11:23:30;;;;;;;4.10;2.80;;;;;;;;;;5030522;28;20420;-47
2021/08/24 11:26:08;;;;;;;4.37;2.90;;;;;;;;;;5030656;28;20454;-47
2021/08/24 11:28:52;;;;;;;4.53;3.20;;;;;;;;;;5030645;28;20402;-48
2021/08/24 11:31:37;;;;;;;2.93;2.73;;;;;;;;;;5030350;28;20414;-47
2021/08/24 11:34:04;;;;;;;3.60;2.90;;;;;;;;;;5030765;28;20405;-48
2021/08/24 11:36:36;;;;;;;5.17;2.73;;;;;;;;;;5030806;28;20394;-48
2021/08/24 11:39:05;;;;;;;3.10;2.80;;;;;;;;;;5030554;28;20424;-47
2021/08/24 11:41:31;;;;;;;4.27;2.90;;;;;;;;;;5030142;28;20422;-48
2021/08/24 11:44:02;;;;;;;2.60;2.40;;;;;;;;;;5030469;28;20398;-48
2021/08/24 11:46:34;;;;;;;2.63;2.37;;;;;;;;;;5030749;28;20987;-47
2021/08/24 11:49:15;;;;;;;5.90;2.60;;;;;;;;;;5030503;28;20402;-48
2021/08/24 11:51:45;;;;;;;2.80;2.60;;;;;;;;;;5030188;28;20492;-48
2021/08/24 11:54:29;;;;;;;5.40;2.60;;;;;;;;;;5030290;28;20878;-48
2021/08/24 11:56:54;;;;;;;3.73;2.30;;;;;;;;;;5030498;28;20410;-47
2021/08/24 11:59:26;;;;;;;7.87;2.20;;;;;;;;;;5030441;28;20410;-47
2021/08/24 12:01:52;;;;;;;2.87;2.23;;;;;;;;;;5030025;28;20670;-47
2021/08/24 12:04:20;;;;;;;3.03;2.83;;;;;;;;;;5030303;28;20406;-48
2021/08/24 12:06:49;;;;;;;3.10;2.80;;;;;;;;;;5030206;28;20462;-48
2021/08/24 12:09:34;;;;;;;5.13;2.70;;;;;;;;;;5031478;28;20948;-48
2021/08/24 12:12:00;;;;;;;4.13;2.70;;;;;;;;;;5033833;28;20920;-48
2021/08/24 12:14:26;;;;;;;2.67;2.20;;;;;;;;;;5034153;28;20418;-48
2021/08/24 12:17:15;;;;;;;2.70;2.43;;;;;;;;;;5033931;28;20403;-47
2021/08/24 12:19:52;;;;;;;3.77;2.20;;;;;;;;;;5025541;28;21029;-47
2021/08/24 12:22:32;;;;;;;3.57;2.70;;;;;;;;;;5033645;28;20430;-49
2021/08/24 12:25:28;;;;;;;3.37;2.87;;;;;;;;;;5034011;28;20432;-48
2021/08/24 12:27:57;;;;;;;8.80;2.07;;;;;;;;;;5033765;28;20860;-48
2021/08/24 12:30:25;;;;;;;4.33;2.57;;;;;;;;;;5033828;28;20406;-47
2021/08/24 12:32:51;;;;;;;2.60;2.40;;;;;;;;;;5034040;28;20941;-47
2021/08/24 12:35:29;;;;;;;2.23;2.13;;;;;;;;;;5034048;28;20498;-47
2021/08/24 12:38:04;;;;;;;3.00;2.63;;;;;;;;;;5034007;28;20171;-48
2021/08/24 12:40:39;;;;;;;3.27;2.50;;;;;;;;;;5033573;28;20444;-47
2021/08/24 12:43:14;;;;;;;5.70;2.33;;;;;;;;;;5033690;28;20402;-47
2021/08/24 12:45:40;;;;;;;2.87;2.57;;;;;;;;;;5033568;28;20406;-47
2021/08/24 12:48:11;;;;;;;2.33;2.13;;;;;;;;;;5033315;28;20398;-48
2021/08/24 12:50:37;;;;;;;3.60;2.37;;;;;;;;;;5033176;28;20418;-48
2021/08/24 12:53:22;;;;;;;2.33;1.60;;;;;;;;;;5033349;28;20456;-47
2021/08/24 12:55:48;;;;;;;4.87;2.10;;;;;;;;;;5033579;28;20589;-47
2021/08/24 12:58:27;;;;;;;2.30;2.10;;;;;;;;;;5033423;28;20763;-47
2021/08/24 13:01:11;;;;;;;2.20;2.03;;;;;;;;;;5033023;28;20410;-47
2021/08/24 13:03:38;;;;;;;3.77;1.87;;;;;;;;;;5033074;28;20832;-47
2021/08/24 13:06:25;;;;;;;2.53;2.33;;;;;;;;;;5031936;28;20478;-47
2021/08/24 13:08:52;;;;;;;2.17;1.70;;;;;;;;;;5033040;28;20753;-47
2021/08/24 13:11:24;;;;;;;5.47;2.27;;;;;;;;;;5032805;28;20925;-48
2021/08/24 13:13:55;;;;;;;2.93;2.10;;;;;;;;;;5033135;28;20410;-47
2021/08/24 13:16:27;;;;;;;1.90;1.80;;;;;;;;;;5033031;28;20406;-47
2021/08/24 13:18:57;;;;;;;2.43;2.20;;;;;;;;;;5033258;28;20402;-47
2021/08/24 13:21:31;;;;;;;2.60;2.13;;;;;;;;;;5031780;28;20426;-47
2021/08/24 13:24:18;;;;;;;2.80;2.50;;;;;;;;;;5032679;28;20816;-48
2021/08/24 13:26:50;;;;;;;3.13;2.40;;;;;;;;;;5032954;28;20809;-48
2021/08/24 13:29:16;;;;;;;4.60;2.07;;;;;;;;;;5032612;28;20408;-47
2021/08/24 13:31:55;;;;;;;4.23;2.63;;;;;;;;;;5032390;28;20469;-47
2021/08/24 13:34:24;;;;;;;1.73;1.63;;;;;;;;;;5033445;28;20402;-47
2021/08/24 13:36:50;;;;;;;2.93;2.63;;;;;;;;;;5032575;28;20770;-50
2021/08/24 13:39:16;;;;;;;2.90;2.60;;;;;;;;;;5032536;28;20419;-47
2021/08/24 13:41:45;;;;;;;3.83;2.67;;;;;;;;;;5032203;28;20921;-47
2021/08/24 13:44:13;;;;;;;4.33;1.90;;;;;;;;;;5032459;28;20413;-46
2021/08/24 13:46:41;;;;;;;2.57;2.37;;;;;;;;;;5032317;28;20485;-46
2021/08/24 13:49:09;;;;;;;3.10;2.27;;;;;;;;;;5032465;28;20402;-47
2021/08/24 13:51:49;;;;;;;2.90;2.00;;;;;;;;;;5032088;28;20468;-46
2021/08/24 13:54:15;;;;;;;2.20;2.10;;;;;;;;;;5032290;28;20451;-46
2021/08/24 13:56:47;;;;;;;2.67;1.93;;;;;;;;;;5032519;28;20437;-47
2021/08/24 13:59:19;;;;;;;2.53;2.20;;;;;;;;;;5032279;28;20771;-48
2021/08/24 14:01:45;;;;;;;3.60;2.57;;;;;;;;;;5032215;28;20429;-46
2021/08/24 14:04:15;;;;;;;2.30;2.10;;;;;;;;;;5032450;28;20403;-47
2021/08/24 14:06:50;;;;;;;3.27;2.53;;;;;;;;;;5032102;28;20488;-46
2021/08/24 14:09:24;;;;;;;2.70;2.13;;;;;;;;;;5032566;28;20398;-46
2021/08/24 14:11:51;;;;;;;2.37;2.17;;;;;;;;;;5031585;28;20898;-46
2021/08/24 14:14:33;;;;;;;2.80;2.50;;;;;;;;;;5032289;28;20874;-47
2021/08/24 14:17:01;;;;;;;8.30;3.13;;;;;;;;;;5031677;28;20406;-47
2021/08/24 14:19:30;;;;;;;3.37;2.37;;;;;;;;;;5030466;28;20917;-48
2021/08/24 14:21:57;;;;;;;2.70;2.50;;;;;;;;;;5031297;28;20430;-46
2021/08/24 14:24:24;;;;;;;2.10;1.90;;;;;;;;;;5031638;28;20437;-47
2021/08/24 14:26:54;;;;;;;3.03;2.43;;;;;;;;;;5031744;28;20465;-46
2021/08/24 14:29:21;;;;;;;3.30;2.53;;;;;;;;;;5031895;28;20406;-48
2021/08/24 14:31:48;;;;;;;2.30;2.10;;;;;;;;;;5031415;28;20429;-47
2021/08/24 14:34:17;;;;;;;3.07;2.37;;;;;;;;;;5030785;28;20415;-46
2021/08/24 14:36:45;;;;;;;4.33;2.57;;;;;;;;;;5031251;28;20557;-47
2021/08/24 14:39:31;;;;;;;2.47;2.27;;;;;;;;;;5031322;28;20398;-49
2021/08/24 14:42:02;;;;;;;4.23;2.80;;;;;;;;;;5028214;28;20537;-46
2021/08/24 14:44:46;;;;;;;3.43;2.17;;;;;;;;;;5031445;28;20445;-47
2021/08/24 14:47:15;;;;;;;5.13;2.30;;;;;;;;;;5030952;28;20462;-47
2021/08/24 14:49:48;;;;;;;3.30;2.50;;;;;;;;;;5031219;28;20893;-46
2021/08/24 14:52:17;;;;;;;3.43;2.40;;;;;;;;;;5030844;28;20425;-49
2021/08/24 14:54:50;;;;;;;2.43;2.17;;;;;;;;;;5031212;28;20460;-49
2021/08/24 14:57:37;;;;;;;2.77;2.53;;;;;;;;;;5031300;28;20931;-46
2021/08/24 15:00:22;;;;;;;2.77;2.13;;;;;;;;;;5031033;28;20904;-49
2021/08/24 15:02:47;;;;;;;5.00;2.53;;;;;;;;;;5028652;28;20489;-49